Weather reports worldwide

Advertisment
Arcen aws, Netherlands (6391): temperature & dewpoint: 29.07.2020 15:00:00 - 04.08.2020 15:00:00 (CEST)Arcen aws, Netherlands (6391): temperature 5cm: 29.07.2020 15:00:00 - 04.08.2020 15:00:00 (CEST)Arcen aws, Netherlands (6391): wind speed & gusts: 29.07.2020 15:00:00 - 04.08.2020 15:00:00 (CEST)Arcen aws, Netherlands (6391): wind direction: 29.07.2020 15:00:00 - 04.08.2020 15:00:00 (CEST)Arcen aws, Netherlands (6391): precipitation: 29.07.2020 15:00:00 - 04.08.2020 15:00:00 (CEST)
Date & Time tt [°C] td [°C] tt 5cm [°C] ff [km/h] ff [kn] fx [km/h] fx [kn] dd rr [mm]
04.08.2020 15:00:00 22,3 5,9 25,4 4 2 18 10 W 0,0
04.08.2020 14:00:00 21,9 5,2 24,8 4 2 14 8 SSW 0,0
04.08.2020 13:00:00 21,9 7,2 24,0 4 2 22 12 W 0,0
04.08.2020 12:00:00 21,2 9,0 23,2 4 2 14 8 WNW 0,0
04.08.2020 11:00:00 19,8 9,6 20,1 4 2 11 6 WSW 0,0
04.08.2020 10:00:00 17,5 11,5 18,8 4 2 11 6 W 0,0
04.08.2020 09:00:00 15,7 12,9 15,4 0 0 7 4 N 0,0
04.08.2020 08:00:00 13,9 12,3 13,5 4 2 7 4 WNW 0,0
04.08.2020 07:00:00 10,3 9,9 8,6 0 0 4 2 N 0,0
04.08.2020 06:00:00 10,3 9,8 8,2 0 0 4 2 N 0,0
04.08.2020 05:00:00 11,1 10,6 9,2 4 2 7 4 NW 0,0
04.08.2020 04:00:00 11,8 10,5 10,4 4 2 7 4 N 0,0
04.08.2020 03:00:00 12,5 10,8 10,9 4 2 7 4 NW 0,0
04.08.2020 02:00:00 13,9 11,6 12,9 4 2 7 4 NNW 0,0
04.08.2020 01:00:00 13,8 12,1 12,1 4 2 7 4 NW 0,0
04.08.2020 00:00:00 14,6 12,0 13,0 4 2 7 4 NW 0,0
03.08.2020 23:00:00 15,6 11,8 14,3 7 4 11 6 NNW 0,0
03.08.2020 22:00:00 16,8 11,6 15,5 4 2 14 8 NNW 0,0
03.08.2020 21:00:00 18,2 11,5 17,5 7 4 22 12 N 0,0
03.08.2020 20:00:00 18,8 11,5 18,3 14 8 32 18 N 0,0
03.08.2020 19:00:00 20,6 12,0 21,2 18 10 43 23 N 0,0
03.08.2020 18:00:00 23,3 7,5 24,8 11 6 25 14 NNW 0,0
03.08.2020 17:00:00 23,7 6,9 25,2 4 2 14 8 NW 0,0
03.08.2020 16:00:00 24,5 7,4 26,1 4 2 14 8 NNE 0,0
03.08.2020 15:00:00 23,9 7,3 26,4 4 2 14 8 SSE 0,0
03.08.2020 14:00:00 22,5 6,5 24,5 4 2 7 4 W 0,0
03.08.2020 13:00:00 21,7 7,0 23,7 4 2 11 6 SE 0,0
03.08.2020 12:00:00 21,6 9,2 23,2 4 2 7 4 SSW 0,0
03.08.2020 11:00:00 20,0 9,7 20,6 4 2 11 6 E 0,0
03.08.2020 10:00:00 18,5 11,4 18,1 4 2 7 4 E 0,0
03.08.2020 09:00:00 16,8 11,9 16,1 4 2 11 6 NE 0,0
03.08.2020 08:00:00 13,1 11,3 11,9 4 2 7 4 NNE 0,0
03.08.2020 07:00:00 9,4 8,6 7,9 4 2 7 4 N 0,0
03.08.2020 06:00:00 8,1 7,5 6,4 0 0 4 2 N 0,0
03.08.2020 05:00:00 8,1 7,4 6,4 0 0 7 4 N 0,0
03.08.2020 04:00:00 8,9 8,5 7,4 0 0 4 2 N 0,0
03.08.2020 03:00:00 9,5 8,5 7,5 0 0 4 2 N 0,0
03.08.2020 02:00:00 10,1 8,9 8,1 0 0 4 2 N 0,0
03.08.2020 01:00:00 10,9 9,6 9,1 0 0 4 2 N 0,0
03.08.2020 00:00:00 12,1 9,8 10,1 4 2 4 2 N 0,0
02.08.2020 23:00:00 14,1 10,5 11,8 4 2 7 4 NNW 0,0
02.08.2020 22:00:00 16,4 10,5 14,7 4 2 14 8 NW 0,0
02.08.2020 21:00:00 19,9 10,7 18,8 7 4 18 10 NNW 0,0
02.08.2020 20:00:00 21,7 10,7 21,5 4 2 22 12 NW 0,0
02.08.2020 19:00:00 23,1 11,1 24,3 4 2 22 12 WNW 0,0
02.08.2020 18:00:00 23,3 11,6 24,9 11 6 32 18 NNW 0,0
02.08.2020 17:00:00 24,4 11,6 25,3 4 2 18 10 WNW 0,0
02.08.2020 16:00:00 24,1 12,2 23,9 7 4 22 12 NW 0,0
02.08.2020 15:00:00 21,0 15,7 21,3 4 2 18 10 WSW 0,0
02.08.2020 14:00:00 23,1 15,0 24,1 4 2 18 10 W 0,0
02.08.2020 13:00:00 20,9 15,3 21,2 4 2 14 8 WSW 0,0
02.08.2020 12:00:00 19,5 15,3 20,0 4 2 14 8 WSW 0,0
02.08.2020 11:00:00 19,6 14,7 20,9 4 2 18 10 WSW 0,0
02.08.2020 10:00:00 19,4 14,4 19,9 7 4 11 6 SW 0,0
02.08.2020 09:00:00 18,6 14,0 19,0 4 2 14 8 WSW 0,0
02.08.2020 08:00:00 17,7 13,6 17,2 4 2 14 8 WSW 0,0
02.08.2020 07:00:00 16,8 13,7 15,2 4 2 7 4 WSW 0,0
02.08.2020 06:00:00 16,9 14,1 15,3 4 2 4 2 SW 0,0
02.08.2020 05:00:00 17,7 14,1 16,7 0 0 7 4 N 0,0
02.08.2020 04:00:00 17,8 14,8 16,4 4 2 4 2 SSW 0,0
02.08.2020 03:00:00 17,7 14,8 16,6 0 0 7 4 N 0,0
02.08.2020 02:00:00 18,1 14,5 16,6 4 2 7 4 NW 0,0
02.08.2020 01:00:00 18,5 14,6 16,5 4 2 11 6 WNW 0,0
02.08.2020 00:00:00 19,6 14,5 18,3 0 0 4 2 N 0,0
01.08.2020 23:00:00 20,1 13,6 18,0 0 0 7 4 N 0,0
01.08.2020 22:00:00 21,8 13,2 20,2 4 2 22 12 WNW 0,0
01.08.2020 21:00:00 23,6 15,4 23,0 7 4 25 14 WNW 0,0
01.08.2020 20:00:00 24,1 17,4 23,7 7 4 22 12 NNW 0,0
01.08.2020 19:00:00 25,8 18,3 27,4 7 4 22 12 NW 0,0
01.08.2020 18:00:00 27,1 18,3 28,0 7 4 25 14 NW 0,0
01.08.2020 17:00:00 28,3 18,1 30,2 4 2 18 10 W 0,0
01.08.2020 16:00:00 29,3 17,7 30,7 4 2 14 8 W 0,0
01.08.2020 15:00:00 29,9 17,7 31,0 4 2 18 10 W 0,0
01.08.2020 14:00:00 29,0 18,5 30,6 4 2 14 8 W 0,0
01.08.2020 13:00:00 27,6 17,8 29,1 4 2 14 8 W 0,0
01.08.2020 12:00:00 26,1 17,7 26,0 4 2 25 14 WSW 0,0
01.08.2020 11:00:00 24,4 17,6 25,0 7 4 25 14 SW 0,0
01.08.2020 10:00:00 23,5 18,7 23,0 7 4 18 10 SW 0,0
01.08.2020 09:00:00 22,9 18,4 22,4 4 2 7 4 W 0,0
01.08.2020 08:00:00 21,3 18,0 20,2 4 2 7 4 SW 0,0
01.08.2020 07:00:00 20,1 18,0 19,1 4 2 14 8 SSW 0,0
01.08.2020 06:00:00 20,3 17,5 19,4 4 2 14 8 S 0,1
01.08.2020 05:00:00 22,6 14,4 21,0 4 2 11 6 SW 0,0
01.08.2020 04:00:00 23,8 14,1 22,3 4 2 18 10 SW 0,0
01.08.2020 03:00:00 24,5 14,0 23,2 7 4 22 12 SSE 0,0
01.08.2020 02:00:00 24,5 14,2 22,9 7 4 14 8 E 0,0
01.08.2020 01:00:00 24,6 14,2 23,2 7 4 14 8 E 0,0
01.08.2020 00:00:00 25,4 14,0 24,1 11 6 18 10 E 0,0
31.07.2020 23:00:00 26,5 13,9 25,0 11 6 22 12 E 0,0
31.07.2020 22:00:00 27,6 14,0 25,8 11 6 18 10 E 0,0
31.07.2020 21:00:00 29,9 14,0 28,6 11 6 22 12 ENE 0,0
31.07.2020 20:00:00 32,1 13,8 31,1 11 6 18 10 ENE 0,0
31.07.2020 19:00:00 34,0 11,6 34,6 11 6 22 12 SE 0,0
31.07.2020 18:00:00 34,3 10,6 35,6 14 8 22 12 ESE 0,0
31.07.2020 17:00:00 34,5 10,5 35,8 14 8 22 12 E 0,0
31.07.2020 16:00:00 33,7 10,9 35,9 11 6 22 12 E 0,0
31.07.2020 15:00:00 33,7 10,5 35,6 11 6 22 12 E 0,0
31.07.2020 14:00:00 32,5 10,5 34,4 11 6 22 12 ESE 0,0
31.07.2020 13:00:00 31,1 10,7 33,0 11 6 22 12 ESE 0,0
31.07.2020 12:00:00 29,7 10,6 31,8 11 6 22 12 E 0,0
31.07.2020 11:00:00 27,4 9,7 28,7 11 6 25 14 E 0,0
31.07.2020 10:00:00 25,6 11,0 26,1 14 8 22 12 E 0,0
31.07.2020 09:00:00 22,8 11,7 22,4 11 6 14 8 E 0,0
31.07.2020 08:00:00 19,7 11,6 18,8 7 4 11 6 E 0,0
31.07.2020 07:00:00 17,1 10,9 14,1 7 4 11 6 E 0,0
31.07.2020 06:00:00 13,7 10,9 11,4 7 4 11 6 ENE 0,0
31.07.2020 05:00:00 13,8 11,1 11,7 4 2 7 4 ENE 0,0
31.07.2020 04:00:00 14,6 11,5 12,4 4 2 7 4 NE 0,0
31.07.2020 03:00:00 16,1 11,4 13,9 4 2 7 4 ENE 0,0
31.07.2020 02:00:00 17,2 10,8 14,3 4 2 7 4 E 0,0
31.07.2020 01:00:00 16,6 11,8 14,3 4 2 7 4 NE 0,0
31.07.2020 00:00:00 18,4 10,6 15,5 4 2 7 4 NE 0,0
30.07.2020 23:00:00 18,3 11,6 16,0 4 2 11 6 NNE 0,0
30.07.2020 22:00:00 21,3 10,3 19,0 4 2 11 6 NE 0,0
30.07.2020 21:00:00 23,4 9,7 21,2 7 4 11 6 NE 0,0
30.07.2020 20:00:00 25,8 8,5 24,3 4 2 14 8 ENE 0,0
30.07.2020 19:00:00 27,2 8,2 28,5 4 2 11 6 N 0,0
30.07.2020 18:00:00 27,0 8,0 29,2 4 2 11 6 WSW 0,0
30.07.2020 17:00:00 27,1 9,0 29,1 4 2 14 8 SSE 0,0
30.07.2020 16:00:00 26,9 7,6 29,7 4 2 11 6 SW 0,0
30.07.2020 15:00:00 26,5 8,3 29,1 4 2 11 6 E 0,0
30.07.2020 14:00:00 25,5 9,5 27,8 4 2 14 8 WNW 0,0
30.07.2020 13:00:00 25,2 10,1 27,0 7 4 18 10 ESE 0,0
30.07.2020 12:00:00 23,5 11,0 25,4 4 2 14 8 WSW 0,0
30.07.2020 11:00:00 21,6 9,5 23,4 4 2 14 8 ESE 0,0
30.07.2020 10:00:00 20,6 10,1 21,6 7 4 14 8 ESE 0,0
30.07.2020 09:00:00 18,8 10,9 18,7 7 4 11 6 E 0,0
30.07.2020 08:00:00 15,9 10,3 15,0 7 4 11 6 ESE 0,0
30.07.2020 07:00:00 10,5 9,3 8,9 4 2 7 4 ENE 0,0
30.07.2020 06:00:00 9,1 8,3 7,4 4 2 7 4 NE 0,0
30.07.2020 05:00:00 9,7 9,2 8,0 4 2 7 4 ENE 0,0
30.07.2020 04:00:00 10,0 8,8 8,2 4 2 4 2 NE 0,0
30.07.2020 03:00:00 10,8 9,5 9,2 4 2 4 2 NNE 0,0
30.07.2020 02:00:00 11,7 10,0 9,9 4 2 4 2 NE 0,0
30.07.2020 01:00:00 11,6 9,2 10,0 4 2 4 2 NNE 0,0
30.07.2020 00:00:00 12,7 9,9 10,7 4 2 4 2 N 0,0
29.07.2020 23:00:00 14,1 9,6 11,9 4 2 7 4 N 0,0
29.07.2020 22:00:00 16,3 9,6 14,5 4 2 14 8 N 0,0
29.07.2020 21:00:00 19,1 8,9 17,9 11 6 18 10 NNW 0,0
29.07.2020 20:00:00 20,6 9,3 19,4 4 2 18 10 NW 0,0
29.07.2020 19:00:00 22,0 8,8 23,7 4 2 14 8 WNW 0,0
29.07.2020 18:00:00 22,3 9,0 24,0 4 2 18 10 W 0,0
29.07.2020 17:00:00 22,6 9,0 23,6 4 2 18 10 W 0,0
29.07.2020 16:00:00 21,6 8,6 22,8 7 4 14 8 WSW 0,0
29.07.2020 15:00:00 21,3 8,2 22,5 4 2 18 10 W 0,0

tt = temperature
td = dewpoint
tt 5cm = temperature 5cm
ff = wind speed
fx = gusts
dd = wind direction
rr = precipitation

Next stations